Time,TemperatureF,DewpointF,PressureIn,WindDirection,WindDirectionDegrees,WindSpeedMPH,WindSpeedGustMPH,Humidity,HourlyPrecipIn,Conditions,Clouds,dailyrainin,SoftwareType,DateUTC
2013-07-01 00:00:00,67.4,62.1,29.95,NNE,22,0.0,0.0,83,0.00,,SKC,0.00,VWS V14.01,2013-07-01 05:00:00,
2013-07-01 00:03:00,65.0,60.4,29.95,NNE,26,0.0,0.0,85,0.00,,SKC,0.00,VWS V14.01,2013-07-01 05:03:00,
2013-07-01 00:08:00,64.7,60.1,29.95,NNE,26,0.0,0.0,85,0.00,,SKC,0.00,VWS V14.01,2013-07-01 05:08:00,
2013-07-01 00:13:00,64.5,60.2,29.96,NNE,26,0.0,0.0,86,0.00,,SKC,0.00,VWS V14.01,2013-07-01 05:13:00,
2013-07-01 00:18:00,64.4,59.8,29.96,NNE,26,0.0,0.0,85,0.00,,SKC,0.00,VWS V14.01,2013-07-01 05:18:00,
2013-07-01 00:23:00,64.3,60.0,29.96,NNE,26,0.0,0.0,86,0.00,,SKC,0.00,VWS V14.01,2013-07-01 05:23:00,
2013-07-01 00:28:00,64.2,60.3,29.96,NNE,26,0.0,0.0,87,0.00,,SKC,0.00,VWS V14.01,2013-07-01 05:28:00,
2013-07-01 00:30:00,65.9,61.6,29.95,NNE,22,0.0,0.0,86,0.00,,SKC,0.00,VWS V14.01,2013-07-01 05:30:00,
2013-07-01 00:33:00,64.1,60.5,29.96,NNE,26,0.0,0.0,88,0.00,,SKC,0.00,VWS V14.01,2013-07-01 05:33:00,
2013-07-01 00:38:00,63.9,60.6,29.96,NNE,26,0.0,0.0,89,0.00,,SKC,0.00,VWS V14.01,2013-07-01 05:38:00,
2013-07-01 00:43:00,63.8,60.5,29.96,NNE,26,0.0,0.0,89,0.00,,SKC,0.00,VWS V14.01,2013-07-01 05:43:00,
2013-07-01 00:48:00,63.6,60.3,29.96,NNE,26,0.0,0.0,89,0.00,,SKC,0.00,VWS V14.01,2013-07-01 05:48:00,
2013-07-01 00:53:00,63.5,60.5,29.96,NNE,26,0.0,0.0,90,0.00,,SKC,0.00,VWS V14.01,2013-07-01 05:53:00,
2013-07-01 00:58:00,63.4,60.7,29.96,NNE,26,0.0,0.0,91,0.00,,SKC,0.00,VWS V14.01,2013-07-01 05:58:00,
2013-07-01 01:04:00,63.3,60.6,29.96,NNE,26,0.0,0.0,91,0.00,,SKC,0.00,VWS V14.01,2013-07-01 06:04:00,
2013-07-01 01:09:00,63.1,60.4,29.96,NNE,26,0.0,0.0,91,0.00,,SKC,0.00,VWS V14.01,2013-07-01 06:09:00,
2013-07-01 01:14:00,62.9,59.9,29.96,NNE,26,0.0,0.0,90,0.00,,SKC,0.00,VWS V14.01,2013-07-01 06:14:00,
2013-07-01 01:19:00,62.7,59.4,29.96,NNE,26,0.0,0.0,89,0.00,,SKC,0.00,VWS V14.01,2013-07-01 06:19:00,
2013-07-01 01:24:00,62.7,59.7,29.96,NNE,26,0.0,0.0,90,0.00,,SKC,0.00,VWS V14.01,2013-07-01 06:24:00,
2013-07-01 01:29:00,62.5,59.5,29.96,NNE,26,0.0,0.0,90,0.00,,SKC,0.00,VWS V14.01,2013-07-01 06:29:00,
2013-07-01 01:30:00,64.1,60.2,29.96,NNE,26,0.0,0.0,87,0.00,,SKC,0.00,VWS V14.01,2013-07-01 06:30:00,
2013-07-01 01:34:00,62.4,59.4,29.96,NNE,26,0.0,0.0,90,0.00,,SKC,0.00,VWS V14.01,2013-07-01 06:34:00,
2013-07-01 01:39:00,62.2,59.5,29.96,NNE,26,0.0,0.0,91,0.00,,SKC,0.00,VWS V14.01,2013-07-01 06:39:00,
2013-07-01 01:44:00,62.0,59.0,29.97,NNE,26,0.0,0.0,90,0.00,,SKC,0.00,VWS V14.01,2013-07-01 06:44:00,
2013-07-01 01:49:00,62.0,59.3,29.97,NNE,26,0.0,0.0,91,0.00,,SKC,0.00,VWS V14.01,2013-07-01 06:49:00,
2013-07-01 01:54:00,61.8,59.2,29.97,NNE,26,0.0,0.0,91,0.00,,SKC,0.00,VWS V14.01,2013-07-01 06:54:00,
2013-07-01 01:59:00,61.8,58.8,29.97,NNE,26,0.0,0.0,90,0.00,,SKC,0.00,VWS V14.01,2013-07-01 06:59:00,
2013-07-01 02:00:00,63.3,60.6,29.96,NNE,26,0.0,0.0,91,0.00,,SKC,0.00,VWS V14.01,2013-07-01 07:00:00,
2013-07-01 02:04:00,61.7,58.7,29.97,NNE,26,0.0,0.0,90,0.00,,SKC,0.00,VWS V14.01,2013-07-01 07:04:00,
2013-07-01 02:09:00,61.6,59.0,29.97,NNE,26,0.0,0.0,91,0.00,,SKC,0.00,VWS V14.01,2013-07-01 07:09:00,
2013-07-01 02:14:00,61.5,59.2,29.97,NNE,26,0.0,0.0,92,0.00,,SKC,0.00,VWS V14.01,2013-07-01 07:14:00,
2013-07-01 02:19:00,61.3,59.0,29.97,NNE,26,0.0,0.0,92,0.00,,SKC,0.00,VWS V14.01,2013-07-01 07:19:00,
2013-07-01 02:24:00,61.1,59.1,29.97,NNE,26,0.0,0.0,93,0.00,,SKC,0.00,VWS V14.01,2013-07-01 07:24:00,
2013-07-01 02:29:00,61.0,59.0,29.97,NNE,26,0.0,0.0,93,0.00,,SKC,0.00,VWS V14.01,2013-07-01 07:29:00,
2013-07-01 02:30:00,62.5,59.5,29.96,NNE,26,0.0,0.0,90,0.00,,SKC,0.00,VWS V14.01,2013-07-01 07:30:00,
2013-07-01 02:34:00,60.8,58.8,29.97,NNE,26,0.0,0.0,93,0.00,,SKC,0.00,VWS V14.01,2013-07-01 07:34:00,
2013-07-01 02:39:00,60.7,58.7,29.97,NNE,26,0.0,0.0,93,0.00,,SKC,0.00,VWS V14.01,2013-07-01 07:39:00,
2013-07-01 02:44:00,60.4,58.4,29.98,NNE,26,0.0,0.0,93,0.00,,SKC,0.00,VWS V14.01,2013-07-01 07:44:00,
2013-07-01 02:49:00,60.3,58.3,29.98,NNE,26,0.0,0.0,93,0.00,,SKC,0.00,VWS V14.01,2013-07-01 07:49:00,
2013-07-01 02:54:00,60.3,58.6,29.98,NNE,26,0.0,0.0,94,0.00,,SKC,0.00,VWS V14.01,2013-07-01 07:54:00,
2013-07-01 02:59:00,60.2,58.5,29.98,NNE,26,0.0,0.0,94,0.00,,SKC,0.00,VWS V14.01,2013-07-01 07:59:00,
2013-07-01 03:00:00,61.8,58.8,29.97,NNE,26,0.0,0.0,90,0.00,,SKC,0.00,VWS V14.01,2013-07-01 08:00:00,
2013-07-01 03:05:00,60.1,58.4,29.98,NNE,26,0.0,0.0,94,0.00,,SKC,0.00,VWS V14.01,2013-07-01 08:05:00,
2013-07-01 03:10:00,60.0,58.3,29.98,NNE,26,0.0,0.0,94,0.00,,SKC,0.00,VWS V14.01,2013-07-01 08:10:00,
2013-07-01 03:15:00,59.9,58.2,29.98,NNE,26,0.0,0.0,94,0.00,,SKC,0.00,VWS V14.01,2013-07-01 08:15:00,
2013-07-01 03:20:00,59.8,58.1,29.98,NNE,26,0.0,0.0,94,0.00,,SKC,0.00,VWS V14.01,2013-07-01 08:20:00,
2013-07-01 03:25:00,59.7,58.0,29.99,NNE,26,0.0,0.0,94,0.00,,SKC,0.00,VWS V14.01,2013-07-01 08:25:00,
2013-07-01 03:30:00,59.5,57.8,29.99,NNE,26,0.0,0.0,94,0.00,,SKC,0.00,VWS V14.01,2013-07-01 08:30:00,
2013-07-01 03:35:00,59.4,57.7,29.98,NNE,26,0.0,0.0,94,0.00,,SKC,0.00,VWS V14.01,2013-07-01 08:35:00,
2013-07-01 03:40:00,59.5,57.8,29.98,NNE,26,0.0,0.0,94,0.00,,SKC,0.00,VWS V14.01,2013-07-01 08:40:00,
2013-07-01 03:45:00,59.5,57.8,29.99,NNE,26,0.0,0.0,94,0.00,,SKC,0.00,VWS V14.01,2013-07-01 08:45:00,
2013-07-01 03:50:00,59.5,57.8,29.99,NNE,26,0.0,0.0,94,0.00,,SKC,0.00,VWS V14.01,2013-07-01 08:50:00,
2013-07-01 03:55:00,59.4,57.7,29.99,NNE,26,0.0,1.0,94,0.00,,SKC,0.00,VWS V14.01,2013-07-01 08:55:00,
2013-07-01 04:00:00,59.4,57.7,29.99,NNE,26,0.0,1.0,94,0.00,,SKC,0.00,VWS V14.01,2013-07-01 09:00:00,
2013-07-01 04:05:00,59.2,57.5,29.99,NNE,26,0.0,0.0,94,0.00,,SKC,0.00,VWS V14.01,2013-07-01 09:05:00,
2013-07-01 04:10:00,59.0,57.3,29.99,NNE,26,0.0,0.0,94,0.00,,SKC,0.00,VWS V14.01,2013-07-01 09:10:00,
2013-07-01 04:15:00,59.0,57.3,29.99,NNE,26,0.0,0.0,94,0.00,,SKC,0.00,VWS V14.01,2013-07-01 09:15:00,
2013-07-01 04:20:00,59.0,57.3,29.99,NNE,26,0.0,0.0,94,0.00,,SKC,0.00,VWS V14.01,2013-07-01 09:20:00,
2013-07-01 04:25:00,59.0,57.3,29.99,NNE,26,0.0,0.0,94,0.00,,SKC,0.00,VWS V14.01,2013-07-01 09:25:00,
2013-07-01 04:30:00,59.0,57.3,29.99,NNE,26,0.0,0.0,94,0.00,,SKC,0.00,VWS V14.01,2013-07-01 09:30:00,
2013-07-01 04:35:00,59.0,57.3,29.99,NNE,26,0.0,0.0,94,0.00,,SKC,0.00,VWS V14.01,2013-07-01 09:35:00,
2013-07-01 04:40:00,59.0,57.3,29.99,NNE,26,0.0,0.0,94,0.00,,SKC,0.00,VWS V14.01,2013-07-01 09:40:00,
2013-07-01 04:45:00,59.0,57.3,29.99,NNE,26,0.0,0.0,94,0.00,,SKC,0.00,VWS V14.01,2013-07-01 09:45:00,
2013-07-01 04:50:00,59.0,57.3,29.99,NNE,26,0.0,0.0,94,0.00,,SKC,0.00,VWS V14.01,2013-07-01 09:50:00,
2013-07-01 04:55:00,59.0,57.3,29.99,NNE,26,0.0,0.0,94,0.00,,SKC,0.00,VWS V14.01,2013-07-01 09:55:00,
2013-07-01 05:00:00,59.0,57.3,29.99,NNE,26,0.0,0.0,94,0.00,,SKC,0.00,VWS V14.01,2013-07-01 10:00:00,
2013-07-01 05:05:00,59.0,57.6,30.00,NNE,26,0.0,0.0,95,0.00,,SKC,0.00,VWS V14.01,2013-07-01 10:05:00,
2013-07-01 05:10:00,59.0,57.6,30.00,NNE,26,0.0,0.0,95,0.00,,SKC,0.00,VWS V14.01,2013-07-01 10:10:00,
2013-07-01 05:15:00,59.0,57.6,30.00,NNE,26,0.0,0.0,95,0.00,,SKC,0.00,VWS V14.01,2013-07-01 10:15:00,
2013-07-01 05:20:00,58.7,57.3,30.00,NNE,26,0.0,0.0,95,0.00,,SKC,0.00,VWS V14.01,2013-07-01 10:20:00,
2013-07-01 05:25:00,58.6,56.9,30.00,NNE,26,0.0,0.0,94,0.00,,SKC,0.00,VWS V14.01,2013-07-01 10:25:00,
2013-07-01 05:30:00,58.4,56.7,30.00,NNE,26,0.0,0.0,94,0.00,,SKC,0.00,VWS V14.01,2013-07-01 10:30:00,
2013-07-01 05:36:00,58.4,56.7,30.00,NNE,26,0.0,1.0,94,0.00,,SKC,0.00,VWS V14.01,2013-07-01 10:36:00,
2013-07-01 05:41:00,58.4,56.7,30.00,NNE,26,0.0,1.0,94,0.00,,SKC,0.00,VWS V14.01,2013-07-01 10:41:00,
2013-07-01 05:46:00,58.4,56.7,30.01,NNE,26,0.0,1.0,94,0.00,,SKC,0.00,VWS V14.01,2013-07-01 10:46:00,
2013-07-01 05:51:00,58.4,56.7,30.01,NNE,26,0.0,1.0,94,0.00,,SKC,0.00,VWS V14.01,2013-07-01 10:51:00,
2013-07-01 05:56:00,58.2,56.5,30.01,NNE,26,0.0,1.0,94,0.00,,SKC,0.00,VWS V14.01,2013-07-01 10:56:00,
2013-07-01 06:00:00,59.0,57.3,29.99,NNE,26,0.0,0.0,94,0.00,,SKC,0.00,VWS V14.01,2013-07-01 11:00:00,
2013-07-01 06:01:00,58.3,56.6,30.01,NNE,26,0.0,0.0,94,0.00,,SKC,0.00,VWS V14.01,2013-07-01 11:01:00,
2013-07-01 06:06:00,58.4,56.7,30.01,NNE,26,0.0,0.0,94,0.00,,SKC,0.00,VWS V14.01,2013-07-01 11:06:00,
2013-07-01 06:11:00,58.4,56.7,30.01,NNE,26,0.0,0.0,94,0.00,,SKC,0.00,VWS V14.01,2013-07-01 11:11:00,
2013-07-01 06:16:00,58.6,56.9,30.01,NNE,26,0.0,0.0,94,0.00,,SKC,0.00,VWS V14.01,2013-07-01 11:16:00,
2013-07-01 06:21:00,58.8,57.1,30.01,NNE,26,0.0,0.0,94,0.00,,SKC,0.00,VWS V14.01,2013-07-01 11:21:00,
2013-07-01 06:26:00,58.8,57.1,30.02,NNE,26,0.0,0.0,94,0.00,,SKC,0.00,VWS V14.01,2013-07-01 11:26:00,
2013-07-01 06:30:00,58.4,56.7,30.00,NNE,26,0.0,0.0,94,0.00,,SKC,0.00,VWS V14.01,2013-07-01 11:30:00,
2013-07-01 06:31:00,59.0,57.3,30.02,NNE,26,0.0,0.0,94,0.00,,SKC,0.00,VWS V14.01,2013-07-01 11:31:00,
2013-07-01 06:36:00,59.0,57.0,30.02,NNE,26,0.0,0.0,93,0.00,,SKC,0.00,VWS V14.01,2013-07-01 11:36:00,
2013-07-01 06:41:00,59.1,57.1,30.02,NNE,26,0.0,0.0,93,0.00,,SKC,0.00,VWS V14.01,2013-07-01 11:41:00,
2013-07-01 06:46:00,59.4,57.4,30.02,NNE,26,0.0,0.0,93,0.00,,SKC,0.00,VWS V14.01,2013-07-01 11:46:00,
2013-07-01 06:51:00,59.6,57.3,30.02,NNE,26,0.0,0.0,92,0.00,,SKC,0.00,VWS V14.01,2013-07-01 11:51:00,
2013-07-01 06:56:00,59.9,57.6,30.02,NNE,26,0.0,0.0,92,0.00,,SKC,0.00,VWS V14.01,2013-07-01 11:56:00,
2013-07-01 07:00:00,58.2,56.5,30.01,NNE,26,0.0,1.0,94,0.00,,SKC,0.00,VWS V14.01,2013-07-01 12:00:00,
2013-07-01 07:01:00,60.2,57.6,30.02,NNE,26,0.0,0.0,91,0.00,,SKC,0.00,VWS V14.01,2013-07-01 12:01:00,
2013-07-01 07:06:00,60.5,57.9,30.02,NNE,26,0.0,0.0,91,0.00,,SKC,0.00,VWS V14.01,2013-07-01 12:06:00,
2013-07-01 07:11:00,60.7,58.1,30.02,NNE,26,0.0,0.0,91,0.00,,SKC,0.00,VWS V14.01,2013-07-01 12:11:00,
2013-07-01 07:16:00,60.9,58.3,30.03,NNE,26,0.0,0.0,91,0.00,,SKC,0.00,VWS V14.01,2013-07-01 12:16:00,
2013-07-01 07:21:00,61.0,58.0,30.03,NNE,26,0.0,0.0,90,0.00,,SKC,0.00,VWS V14.01,2013-07-01 12:21:00,
2013-07-01 07:26:00,61.1,58.2,30.03,NNE,26,0.0,0.0,90,0.00,,SKC,0.00,VWS V14.01,2013-07-01 12:26:00,
2013-07-01 07:30:00,59.0,57.3,30.02,NNE,26,0.0,0.0,94,0.00,,SKC,0.00,VWS V14.01,2013-07-01 12:30:00,
2013-07-01 07:31:00,61.3,58.3,30.03,NNE,26,0.0,0.0,90,0.00,,SKC,0.00,VWS V14.01,2013-07-01 12:31:00,
2013-07-01 07:36:00,61.4,58.5,30.03,NNE,26,0.0,0.0,90,0.00,,SKC,0.00,VWS V14.01,2013-07-01 12:36:00,
2013-07-01 07:41:00,61.6,58.3,30.03,NNE,26,0.0,0.0,89,0.00,,SKC,0.00,VWS V14.01,2013-07-01 12:41:00,
2013-07-01 07:46:00,62.0,59.0,30.03,NNE,26,0.0,1.0,90,0.00,,SKC,0.00,VWS V14.01,2013-07-01 12:46:00,
2013-07-01 07:51:00,62.4,59.1,30.04,NNE,26,3.0,3.0,89,0.00,,SKC,0.00,VWS V14.01,2013-07-01 12:51:00,
2013-07-01 07:56:00,62.8,59.5,30.04,NNE,26,0.0,3.0,89,0.00,,SKC,0.00,VWS V14.01,2013-07-01 12:56:00,
2013-07-01 08:00:00,60.2,57.6,30.02,NNE,26,0.0,0.0,91,0.00,,SKC,0.00,VWS V14.01,2013-07-01 13:00:00,
2013-07-01 08:01:00,63.3,60.0,30.04,NNE,28,0.0,0.0,89,0.00,,SKC,0.00,VWS V14.01,2013-07-01 13:01:00,
2013-07-01 08:07:00,64.0,60.1,30.04,NNE,28,0.0,1.0,87,0.00,,SKC,0.00,VWS V14.01,2013-07-01 13:07:00,
2013-07-01 08:12:00,64.7,60.8,30.04,NNE,28,0.0,1.0,87,0.00,,SKC,0.00,VWS V14.01,2013-07-01 13:12:00,
2013-07-01 08:17:00,65.4,60.8,30.04,NNE,28,0.0,5.0,85,0.00,,SKC,0.00,VWS V14.01,2013-07-01 13:17:00,
2013-07-01 08:22:00,66.2,60.5,30.04,NNE,28,0.0,5.0,82,0.00,,SKC,0.00,VWS V14.01,2013-07-01 13:22:00,
2013-07-01 08:27:00,66.9,60.5,30.03,NNE,28,0.0,5.0,80,0.00,,SKC,0.00,VWS V14.01,2013-07-01 13:27:00,
2013-07-01 08:30:00,61.2,58.2,30.03,NNE,26,0.0,0.0,90,0.00,,SKC,0.00,VWS V14.01,2013-07-01 13:30:00,
2013-07-01 08:32:00,67.5,60.8,30.03,NNE,28,0.0,1.0,79,0.00,,SKC,0.00,VWS V14.01,2013-07-01 13:32:00,
2013-07-01 08:37:00,67.9,60.8,30.03,NNE,28,0.0,2.0,78,0.00,,SKC,0.00,VWS V14.01,2013-07-01 13:37:00,
2013-07-01 08:42:00,68.3,61.2,30.03,NNE,28,2.0,2.0,78,0.00,,SKC,0.00,VWS V14.01,2013-07-01 13:42:00,
2013-07-01 08:47:00,68.6,60.7,30.03,NNE,28,0.0,2.0,76,0.00,,SKC,0.00,VWS V14.01,2013-07-01 13:47:00,
2013-07-01 08:52:00,68.7,60.1,30.04,NE,43,6.0,6.0,74,0.00,,SKC,0.00,VWS V14.01,2013-07-01 13:52:00,
2013-07-01 08:57:00,68.7,59.7,30.04,ENE,65,1.0,7.0,73,0.00,,SKC,0.00,VWS V14.01,2013-07-01 13:57:00,
2013-07-01 09:00:00,63.2,59.9,30.04,NNE,28,0.0,5.0,89,0.00,,SKC,0.00,VWS V14.01,2013-07-01 14:00:00,
2013-07-01 09:02:00,68.8,60.2,30.04,ENE,65,1.0,3.0,74,0.00,,SKC,0.00,VWS V14.01,2013-07-01 14:02:00,
2013-07-01 09:07:00,69.1,60.1,30.04,ENE,65,0.0,3.0,73,0.00,,SKC,0.00,VWS V14.01,2013-07-01 14:07:00,
2013-07-01 09:12:00,69.2,60.2,30.04,ENE,65,0.0,5.0,73,0.00,,SKC,0.00,VWS V14.01,2013-07-01 14:12:00,
2013-07-01 09:17:00,69.4,61.1,30.03,ENE,65,0.0,5.0,75,0.00,,SKC,0.00,VWS V14.01,2013-07-01 14:17:00,
2013-07-01 09:22:00,69.7,60.7,30.03,ENE,65,1.0,5.0,73,0.00,,SKC,0.00,VWS V14.01,2013-07-01 14:22:00,
2013-07-01 09:27:00,69.7,60.3,30.03,ENE,65,0.0,5.0,72,0.00,,SKC,0.00,VWS V14.01,2013-07-01 14:27:00,
2013-07-01 09:30:00,67.3,60.9,30.03,NNE,28,0.0,5.0,80,0.00,,SKC,0.00,VWS V14.01,2013-07-01 14:30:00,
2013-07-01 09:32:00,70.0,61.3,30.03,ENE,65,1.0,2.0,74,0.00,,SKC,0.00,VWS V14.01,2013-07-01 14:32:00,
2013-07-01 09:37:00,70.2,61.5,30.03,ENE,65,0.0,2.0,74,0.00,,SKC,0.00,VWS V14.01,2013-07-01 14:37:00,
2013-07-01 09:42:00,70.5,61.8,30.03,ENE,65,0.0,2.0,74,0.00,,SKC,0.00,VWS V14.01,2013-07-01 14:42:00,
2013-07-01 09:47:00,70.8,61.7,30.03,ENE,65,0.0,2.0,73,0.00,,SKC,0.00,VWS V14.01,2013-07-01 14:47:00,
2013-07-01 09:52:00,71.2,61.7,30.03,ENE,65,0.0,2.0,72,0.00,,SKC,0.00,VWS V14.01,2013-07-01 14:52:00,
2013-07-01 09:57:00,71.5,62.0,30.03,ENE,65,0.0,3.0,72,0.00,,SKC,0.00,VWS V14.01,2013-07-01 14:57:00,
2013-07-01 10:00:00,68.8,60.2,30.04,ENE,65,0.0,7.0,74,0.00,,SKC,0.00,VWS V14.01,2013-07-01 15:00:00,
2013-07-01 10:02:00,71.8,61.9,30.04,ENE,65,0.0,1.0,71,0.00,,SKC,0.00,VWS V14.01,2013-07-01 15:02:00,
2013-07-01 10:07:00,72.2,62.3,30.04,ENE,65,0.0,1.0,71,0.00,,SKC,0.00,VWS V14.01,2013-07-01 15:07:00,
2013-07-01 10:12:00,72.5,62.6,30.03,ENE,65,0.0,1.0,71,0.00,,SKC,0.00,VWS V14.01,2013-07-01 15:12:00,
2013-07-01 10:17:00,72.8,62.5,30.04,ENE,65,1.0,1.0,70,0.00,,SKC,0.00,VWS V14.01,2013-07-01 15:17:00,
2013-07-01 10:22:00,73.1,62.7,30.03,ENE,65,0.0,1.0,70,0.00,,SKC,0.00,VWS V14.01,2013-07-01 15:22:00,
2013-07-01 10:27:00,73.4,62.6,30.04,ENE,65,0.0,2.0,69,0.00,,SKC,0.00,VWS V14.01,2013-07-01 15:27:00,
2013-07-01 10:30:00,69.9,61.6,30.03,ENE,65,0.0,5.0,75,0.00,,SKC,0.00,VWS V14.01,2013-07-01 15:30:00,
2013-07-01 10:32:00,73.7,63.3,30.03,ENE,65,0.0,2.0,70,0.00,,SKC,0.00,VWS V14.01,2013-07-01 15:32:00,
2013-07-01 10:37:00,74.0,62.8,30.04,ENE,65,1.0,2.0,68,0.00,,SKC,0.00,VWS V14.01,2013-07-01 15:37:00,
2013-07-01 10:42:00,74.4,63.6,30.04,ENE,65,0.0,4.0,69,0.00,,SKC,0.00,VWS V14.01,2013-07-01 15:42:00,
2013-07-01 10:48:00,74.7,63.5,30.03,ENE,65,0.0,4.0,68,0.00,,SKC,0.00,VWS V14.01,2013-07-01 15:48:00,
2013-07-01 10:53:00,74.9,63.2,30.03,ENE,65,0.0,4.0,67,0.00,,SKC,0.00,VWS V14.01,2013-07-01 15:53:00,
2013-07-01 10:58:00,75.3,64.0,30.03,ENE,65,0.0,4.0,68,0.00,,SKC,0.00,VWS V14.01,2013-07-01 15:58:00,
2013-07-01 11:00:00,71.7,62.2,30.03,ENE,65,0.0,3.0,72,0.00,,SKC,0.00,VWS V14.01,2013-07-01 16:00:00,
2013-07-01 11:03:00,75.7,63.1,30.03,ENE,65,0.0,0.0,65,0.00,,SKC,0.00,VWS V14.01,2013-07-01 16:03:00,
2013-07-01 11:08:00,76.0,63.4,30.04,ENE,65,0.0,1.0,65,0.00,,SKC,0.00,VWS V14.01,2013-07-01 16:08:00,
2013-07-01 11:13:00,76.1,63.9,30.03,ENE,65,0.0,1.0,66,0.00,,SKC,0.00,VWS V14.01,2013-07-01 16:13:00,
2013-07-01 11:18:00,76.4,64.6,30.03,ENE,65,0.0,2.0,67,0.00,,SKC,0.00,VWS V14.01,2013-07-01 16:18:00,
2013-07-01 11:23:00,76.7,64.9,30.03,ENE,65,1.0,2.0,67,0.00,,SKC,0.00,VWS V14.01,2013-07-01 16:23:00,
2013-07-01 11:28:00,77.0,65.2,30.03,ENE,65,0.0,2.0,67,0.00,,SKC,0.00,VWS V14.01,2013-07-01 16:28:00,
2013-07-01 11:30:00,73.6,62.8,30.04,ENE,65,0.0,2.0,69,0.00,,SKC,0.00,VWS V14.01,2013-07-01 16:30:00,
2013-07-01 11:33:00,77.3,65.5,30.03,ENE,65,0.0,1.0,67,0.00,,SKC,0.00,VWS V14.01,2013-07-01 16:33:00,
2013-07-01 11:38:00,77.7,65.0,30.03,ENE,64,0.0,2.0,65,0.00,,SKC,0.00,VWS V14.01,2013-07-01 16:38:00,
2013-07-01 11:43:00,78.1,64.9,30.03,ENE,64,0.0,2.0,64,0.00,,SKC,0.00,VWS V14.01,2013-07-01 16:43:00,
2013-07-01 11:48:00,78.6,66.7,30.03,ENE,65,0.0,4.0,67,0.00,,SKC,0.00,VWS V14.01,2013-07-01 16:48:00,
2013-07-01 11:53:00,78.7,64.6,30.03,ENE,65,0.0,4.0,62,0.00,,SKC,0.00,VWS V14.01,2013-07-01 16:53:00,
2013-07-01 11:58:00,78.9,65.7,30.03,ENE,65,0.0,4.0,64,0.00,,SKC,0.00,VWS V14.01,2013-07-01 16:58:00,
2013-07-01 12:00:00,75.5,63.4,30.03,ENE,65,0.0,4.0,66,0.00,,SKC,0.00,VWS V14.01,2013-07-01 17:00:00,
2013-07-01 12:03:00,79.3,66.1,30.03,ENE,65,0.0,0.0,64,0.00,,SKC,0.00,VWS V14.01,2013-07-01 17:03:00,
2013-07-01 12:08:00,79.8,66.6,30.03,ENE,65,0.0,1.0,64,0.00,,SKC,0.00,VWS V14.01,2013-07-01 17:08:00,
2013-07-01 12:13:00,80.2,65.5,30.03,ENE,65,0.0,2.0,61,0.00,,SKC,0.00,VWS V14.01,2013-07-01 17:13:00,
2013-07-01 12:18:00,80.6,65.9,30.03,ENE,65,1.0,2.0,61,0.00,,SKC,0.00,VWS V14.01,2013-07-01 17:18:00,
2013-07-01 12:24:00,81.0,64.8,30.03,ENE,65,0.0,2.0,58,0.00,,SKC,0.00,VWS V14.01,2013-07-01 17:24:00,
2013-07-01 12:29:00,81.4,65.7,30.03,ENE,65,0.0,3.0,59,0.00,,SKC,0.00,VWS V14.01,2013-07-01 17:29:00,
2013-07-01 12:30:00,77.1,65.3,30.03,ENE,65,1.0,2.0,67,0.00,,SKC,0.00,VWS V14.01,2013-07-01 17:30:00,
2013-07-01 12:34:00,81.1,65.9,30.03,ENE,65,0.0,2.0,60,0.00,,SKC,0.00,VWS V14.01,2013-07-01 17:34:00,
2013-07-01 12:39:00,81.2,65.5,30.03,ENE,65,0.0,2.0,59,0.00,,SKC,0.00,VWS V14.01,2013-07-01 17:39:00,
2013-07-01 12:44:00,81.6,64.9,30.03,ENE,65,0.0,3.0,57,0.00,,SKC,0.00,VWS V14.01,2013-07-01 17:44:00,
2013-07-01 12:49:00,82.1,65.9,30.02,NE,46,0.0,6.0,58,0.00,,SKC,0.00,VWS V14.01,2013-07-01 17:49:00,
2013-07-01 12:54:00,82.5,66.2,30.02,NE,46,1.0,6.0,58,0.00,,SKC,0.00,VWS V14.01,2013-07-01 17:54:00,
2013-07-01 12:59:00,82.7,64.9,30.02,NE,46,0.0,6.0,55,0.00,,SKC,0.00,VWS V14.01,2013-07-01 17:59:00,
2013-07-01 13:00:00,79.0,65.3,30.03,ENE,65,0.0,4.0,63,0.00,,SKC,0.00,VWS V14.01,2013-07-01 18:00:00,
2013-07-01 13:04:00,83.0,65.7,30.03,NE,49,0.0,5.0,56,0.00,,SKC,0.00,VWS V14.01,2013-07-01 18:04:00,
2013-07-01 13:09:00,83.3,64.9,30.03,NE,48,0.0,5.0,54,0.00,,SKC,0.00,VWS V14.01,2013-07-01 18:09:00,
2013-07-01 13:14:00,83.6,65.2,30.02,NNE,30,0.0,5.0,54,0.00,,SKC,0.00,VWS V14.01,2013-07-01 18:14:00,
2013-07-01 13:19:00,83.9,66.0,30.02,NNE,30,1.0,5.0,55,0.00,,SKC,0.00,VWS V14.01,2013-07-01 18:19:00,
2013-07-01 13:24:00,84.2,65.8,30.02,NNE,27,0.0,5.0,54,0.00,,SKC,0.00,VWS V14.01,2013-07-01 18:24:00,
2013-07-01 13:29:00,84.1,64.6,30.02,NNW,336,0.0,7.0,52,0.00,,SKC,0.00,VWS V14.01,2013-07-01 18:29:00,
2013-07-01 13:30:00,81.3,64.6,30.03,ENE,65,0.0,3.0,57,0.00,,SKC,0.00,VWS V14.01,2013-07-01 18:30:00,
2013-07-01 13:34:00,84.3,65.3,30.02,NE,35,0.0,5.0,53,0.00,,SKC,0.00,VWS V14.01,2013-07-01 18:34:00,
2013-07-01 13:39:00,84.5,64.4,30.02,NNE,30,1.0,5.0,51,0.00,,SKC,0.00,VWS V14.01,2013-07-01 18:39:00,
2013-07-01 13:44:00,84.5,65.0,30.02,NNE,30,0.0,5.0,52,0.00,,SKC,0.00,VWS V14.01,2013-07-01 18:44:00,
2013-07-01 13:49:00,84.6,63.3,30.02,NE,37,0.0,7.0,49,0.00,,SKC,0.00,VWS V14.01,2013-07-01 18:49:00,
2013-07-01 13:54:00,84.8,63.0,30.02,NE,34,1.0,7.0,48,0.00,,SKC,0.00,VWS V14.01,2013-07-01 18:54:00,
2013-07-01 13:59:00,84.9,63.0,30.02,NE,38,1.0,7.0,48,0.00,,SKC,0.00,VWS V14.01,2013-07-01 18:59:00,
2013-07-01 14:00:00,82.8,65.0,30.02,NE,46,0.0,6.0,55,0.00,,SKC,0.00,VWS V14.01,2013-07-01 19:00:00,
2013-07-01 14:04:00,84.9,63.0,30.02,NE,41,1.0,6.0,48,0.00,,SKC,0.00,VWS V14.01,2013-07-01 19:04:00,
2013-07-01 14:09:00,84.8,63.0,30.02,NE,41,2.0,7.0,48,0.00,,SKC,0.00,VWS V14.01,2013-07-01 19:09:00,
2013-07-01 14:14:00,84.6,63.3,30.02,NE,36,0.0,7.0,49,0.00,,SKC,0.00,VWS V14.01,2013-07-01 19:14:00,
2013-07-01 14:19:00,84.8,63.0,30.02,NNW,342,0.0,7.0,48,0.00,,SKC,0.00,VWS V14.01,2013-07-01 19:19:00,
2013-07-01 14:25:00,84.8,63.0,30.02,NNW,327,1.0,8.0,48,0.00,,SKC,0.00,VWS V14.01,2013-07-01 19:25:00,
2013-07-01 14:30:00,84.8,61.7,30.02,NNW,331,1.0,8.0,46,0.00,,SKC,0.00,VWS V14.01,2013-07-01 19:30:00,
2013-07-01 14:35:00,84.7,61.0,30.01,NNE,26,0.0,7.0,45,0.00,,SKC,0.00,VWS V14.01,2013-07-01 19:35:00,
2013-07-01 14:40:00,84.6,61.6,30.01,North,5,1.0,10.0,46,0.00,,SKC,0.00,VWS V14.01,2013-07-01 19:40:00,
2013-07-01 14:45:00,84.3,62.5,30.01,NNE,29,0.0,10.0,48,0.00,,SKC,0.00,VWS V14.01,2013-07-01 19:45:00,
2013-07-01 14:50:00,84.2,61.2,30.01,NNE,12,1.0,10.0,46,0.00,,SKC,0.00,VWS V14.01,2013-07-01 19:50:00,
2013-07-01 14:55:00,83.9,62.1,30.01,NNE,20,0.0,10.0,48,0.00,,SKC,0.00,VWS V14.01,2013-07-01 19:55:00,
2013-07-01 15:00:00,83.4,60.5,30.01,NNW,342,0.0,10.0,46,0.00,,SKC,0.00,VWS V14.01,2013-07-01 20:00:00,
2013-07-01 15:05:00,83.2,60.9,30.01,NNE,26,0.0,5.0,47,0.00,,SKC,0.00,VWS V14.01,2013-07-01 20:05:00,
2013-07-01 15:10:00,83.0,62.5,30.01,North,355,0.0,5.0,50,0.00,,SKC,0.00,VWS V14.01,2013-07-01 20:10:00,
2013-07-01 15:15:00,82.6,61.5,30.01,NNE,22,0.0,5.0,49,0.00,,SKC,0.00,VWS V14.01,2013-07-01 20:15:00,
2013-07-01 15:20:00,82.5,62.6,30.01,NNE,22,0.0,5.0,51,0.00,,SKC,0.00,VWS V14.01,2013-07-01 20:20:00,
2013-07-01 15:25:00,82.2,62.3,30.01,ENE,78,0.0,6.0,51,0.00,,SKC,0.00,VWS V14.01,2013-07-01 20:25:00,
2013-07-01 15:30:00,82.0,61.5,30.01,ENE,72,1.0,6.0,50,0.00,,SKC,0.00,VWS V14.01,2013-07-01 20:30:00,
2013-07-01 15:35:00,81.5,60.5,30.01,ENE,67,0.0,4.0,49,0.00,,SKC,0.00,VWS V14.01,2013-07-01 20:35:00,
2013-07-01 15:40:00,81.3,62.5,30.01,ENE,67,0.0,4.0,53,0.00,,SKC,0.00,VWS V14.01,2013-07-01 20:40:00,
2013-07-01 15:45:00,80.9,62.2,30.01,NE,50,5.0,6.0,53,0.00,,SKC,0.00,VWS V14.01,2013-07-01 20:45:00,
2013-07-01 15:50:00,80.4,60.6,30.01,ENE,65,1.0,6.0,51,0.00,,SKC,0.00,VWS V14.01,2013-07-01 20:50:00,
2013-07-01 15:56:00,80.0,60.3,30.01,ENE,65,3.0,6.0,51,0.00,,SKC,0.00,VWS V14.01,2013-07-01 20:56:00,
2013-07-01 16:00:00,83.4,60.5,30.01,NNW,342,0.0,10.0,46,0.00,,SKC,0.00,VWS V14.01,2013-07-01 21:00:00,
2013-07-01 16:01:00,79.8,60.6,30.01,ENE,64,0.0,0.0,52,0.00,,SKC,0.00,VWS V14.01,2013-07-01 21:01:00,
2013-07-01 16:06:00,79.7,60.5,30.01,ENE,64,0.0,4.0,52,0.00,,SKC,0.00,VWS V14.01,2013-07-01 21:06:00,
2013-07-01 16:11:00,79.6,61.0,30.01,ENE,60,2.0,4.0,53,0.00,,SKC,0.00,VWS V14.01,2013-07-01 21:11:00,
2013-07-01 16:16:00,79.4,58.0,30.01,ENE,61,2.0,4.0,48,0.00,,SKC,0.00,VWS V14.01,2013-07-01 21:16:00,
2013-07-01 16:21:00,79.4,59.7,30.01,ENE,59,1.0,4.0,51,0.00,,SKC,0.00,VWS V14.01,2013-07-01 21:21:00,
2013-07-01 16:26:00,79.3,60.2,30.01,ENE,60,2.0,6.0,52,0.00,,SKC,0.00,VWS V14.01,2013-07-01 21:26:00,
2013-07-01 16:30:00,82.0,61.0,30.01,ENE,72,1.0,6.0,49,0.00,,SKC,0.00,VWS V14.01,2013-07-01 21:30:00,
2013-07-01 16:31:00,79.3,60.7,30.01,ENE,60,4.0,4.0,53,0.00,,SKC,0.00,VWS V14.01,2013-07-01 21:31:00,
2013-07-01 16:36:00,79.3,60.2,30.01,ENE,61,0.0,5.0,52,0.00,,SKC,0.00,VWS V14.01,2013-07-01 21:36:00,
2013-07-01 16:41:00,79.3,59.6,30.01,NE,39,0.0,5.0,51,0.00,,SKC,0.00,VWS V14.01,2013-07-01 21:41:00,
2013-07-01 16:46:00,79.4,61.3,30.01,NNE,20,4.0,5.0,54,0.00,,SKC,0.00,VWS V14.01,2013-07-01 21:46:00,
2013-07-01 16:51:00,79.3,60.2,30.01,NNE,32,0.0,6.0,52,0.00,,SKC,0.00,VWS V14.01,2013-07-01 21:51:00,
2013-07-01 16:56:00,79.3,60.2,30.01,NNE,30,0.0,6.0,52,0.00,,SKC,0.00,VWS V14.01,2013-07-01 21:56:00,
2013-07-01 17:00:00,79.8,60.6,30.01,ENE,64,0.0,6.0,52,0.00,,SKC,0.00,VWS V14.01,2013-07-01 22:00:00,
2013-07-01 17:01:00,79.3,60.2,30.01,NE,36,0.0,1.0,52,0.00,,SKC,0.00,VWS V14.01,2013-07-01 22:01:00,
2013-07-01 17:06:00,79.3,59.6,30.01,NNE,29,1.0,4.0,51,0.00,,SKC,0.00,VWS V14.01,2013-07-01 22:06:00,
2013-07-01 17:11:00,79.2,60.1,30.01,NE,38,1.0,5.0,52,0.00,,SKC,0.00,VWS V14.01,2013-07-01 22:11:00,
2013-07-01 17:16:00,79.0,59.9,30.01,NNE,31,2.0,5.0,52,0.00,,SKC,0.00,VWS V14.01,2013-07-01 22:16:00,
2013-07-01 17:21:00,78.8,59.2,30.01,NNE,32,1.0,5.0,51,0.00,,SKC,0.00,VWS V14.01,2013-07-01 22:21:00,
2013-07-01 17:26:00,78.7,60.7,30.01,NNE,32,1.0,5.0,54,0.00,,SKC,0.00,VWS V14.01,2013-07-01 22:26:00,
2013-07-01 17:30:00,79.3,60.7,30.01,ENE,60,4.0,6.0,53,0.00,,SKC,0.00,VWS V14.01,2013-07-01 22:30:00,
2013-07-01 17:31:00,78.7,58.5,30.01,NE,38,0.0,2.0,50,0.00,,SKC,0.00,VWS V14.01,2013-07-01 22:31:00,
2013-07-01 17:36:00,78.7,59.1,30.01,NNE,24,0.0,4.0,51,0.00,,SKC,0.00,VWS V14.01,2013-07-01 22:36:00,
2013-07-01 17:41:00,78.5,59.4,30.01,NNE,26,0.0,4.0,52,0.00,,SKC,0.00,VWS V14.01,2013-07-01 22:41:00,
2013-07-01 17:46:00,78.5,60.0,30.01,NE,36,1.0,5.0,53,0.00,,SKC,0.00,VWS V14.01,2013-07-01 22:46:00,
2013-07-01 17:51:00,78.3,60.3,30.01,NE,36,1.0,5.0,54,0.00,,SKC,0.00,VWS V14.01,2013-07-01 22:51:00,
2013-07-01 17:56:00,78.2,60.2,30.01,NE,36,0.0,5.0,54,0.00,,SKC,0.00,VWS V14.01,2013-07-01 22:56:00,
2013-07-01 18:00:00,79.3,59.6,30.01,NE,36,1.0,6.0,51,0.00,,SKC,0.00,VWS V14.01,2013-07-01 23:00:00,
2013-07-01 18:01:00,78.1,59.1,30.01,NE,42,0.0,2.0,52,0.00,,SKC,0.00,VWS V14.01,2013-07-01 23:01:00,
2013-07-01 18:06:00,78.0,58.4,30.01,NE,42,0.0,2.0,51,0.00,,SKC,0.00,VWS V14.01,2013-07-01 23:06:00,
2013-07-01 18:11:00,77.9,58.9,30.01,NE,42,0.0,4.0,52,0.00,,SKC,0.00,VWS V14.01,2013-07-01 23:11:00,
2013-07-01 18:16:00,77.8,57.7,30.01,NE,41,0.0,5.0,50,0.00,,SKC,0.00,VWS V14.01,2013-07-01 23:16:00,
2013-07-01 18:21:00,77.6,58.1,30.01,NE,42,0.0,5.0,51,0.00,,SKC,0.00,VWS V14.01,2013-07-01 23:21:00,
2013-07-01 18:26:00,77.6,59.1,30.01,NE,42,0.0,5.0,53,0.00,,SKC,0.00,VWS V14.01,2013-07-01 23:26:00,
2013-07-01 18:30:00,78.7,58.0,30.01,NE,38,0.0,5.0,49,0.00,,SKC,0.00,VWS V14.01,2013-07-01 23:30:00,
2013-07-01 18:31:00,77.7,58.2,30.00,NE,42,0.0,2.0,51,0.00,,SKC,0.00,VWS V14.01,2013-07-01 23:31:00,
2013-07-01 18:37:00,77.8,59.3,30.01,NE,42,0.0,2.0,53,0.00,,SKC,0.00,VWS V14.01,2013-07-01 23:37:00,
2013-07-01 18:42:00,78.0,60.5,30.00,NE,42,0.0,2.0,55,0.00,,SKC,0.00,VWS V14.01,2013-07-01 23:42:00,
2013-07-01 18:47:00,78.4,60.4,30.00,NE,42,0.0,2.0,54,0.00,,SKC,0.00,VWS V14.01,2013-07-01 23:47:00,
2013-07-01 18:52:00,78.7,61.2,30.00,NE,43,0.0,2.0,55,0.00,,SKC,0.00,VWS V14.01,2013-07-01 23:52:00,
2013-07-01 18:57:00,78.4,60.9,30.00,NNE,30,1.0,3.0,55,0.00,,SKC,0.00,VWS V14.01,2013-07-01 23:57:00,
2013-07-01 19:00:00,78.1,60.1,30.01,NE,42,0.0,5.0,54,0.00,,SKC,0.00,VWS V14.01,2013-07-02 00:00:00,
2013-07-01 19:02:00,78.0,60.0,30.00,NE,36,0.0,3.0,54,0.00,,SKC,0.00,VWS V14.01,2013-07-02 00:02:00,
2013-07-01 19:07:00,77.7,59.8,30.00,NE,34,0.0,4.0,54,0.00,,SKC,0.00,VWS V14.01,2013-07-02 00:07:00,
2013-07-01 19:12:00,77.4,60.5,30.00,NE,34,0.0,4.0,56,0.00,,SKC,0.00,VWS V14.01,2013-07-02 00:12:00,
2013-07-01 19:17:00,77.1,60.7,30.00,NE,34,0.0,4.0,57,0.00,,SKC,0.00,VWS V14.01,2013-07-02 00:17:00,
2013-07-01 19:22:00,76.7,60.3,30.00,NE,34,1.0,4.0,57,0.00,,SKC,0.00,VWS V14.01,2013-07-02 00:22:00,
2013-07-01 19:27:00,76.5,61.1,30.00,NE,34,1.0,4.0,59,0.00,,SKC,0.00,VWS V14.01,2013-07-02 00:27:00,
2013-07-01 19:30:00,77.6,58.1,30.01,NE,42,2.0,5.0,51,0.00,,SKC,0.00,VWS V14.01,2013-07-02 00:30:00,
2013-07-01 19:32:00,76.2,60.4,30.00,NE,34,1.0,1.0,58,0.00,,SKC,0.00,VWS V14.01,2013-07-02 00:32:00,
2013-07-01 19:37:00,76.0,61.1,30.00,NE,35,0.0,3.0,60,0.00,,SKC,0.00,VWS V14.01,2013-07-02 00:37:00,
2013-07-01 19:42:00,75.8,60.0,30.00,NE,36,0.0,3.0,58,0.00,,SKC,0.00,VWS V14.01,2013-07-02 00:42:00,
2013-07-01 19:47:00,75.6,60.8,30.00,NE,36,0.0,4.0,60,0.00,,SKC,0.00,VWS V14.01,2013-07-02 00:47:00,
2013-07-01 19:52:00,75.4,60.6,30.00,NE,36,0.0,4.0,60,0.00,,SKC,0.00,VWS V14.01,2013-07-02 00:52:00,
2013-07-01 19:57:00,75.2,60.4,30.00,NE,36,0.0,4.0,60,0.00,,SKC,0.00,VWS V14.01,2013-07-02 00:57:00,
2013-07-01 20:00:00,78.1,59.6,30.00,NE,36,0.0,5.0,53,0.00,,SKC,0.00,VWS V14.01,2013-07-02 01:00:00,
2013-07-01 20:02:00,75.0,60.2,30.00,NE,36,0.0,1.0,60,0.00,,SKC,0.00,VWS V14.01,2013-07-02 01:02:00,
2013-07-01 20:07:00,74.9,60.1,30.00,NE,36,0.0,1.0,60,0.00,,SKC,0.00,VWS V14.01,2013-07-02 01:07:00,
2013-07-01 20:12:00,74.7,60.4,30.00,NE,36,0.0,1.0,61,0.00,,SKC,0.00,VWS V14.01,2013-07-02 01:12:00,
2013-07-01 20:17:00,74.5,59.7,30.00,NE,36,0.0,2.0,60,0.00,,SKC,0.00,VWS V14.01,2013-07-02 01:17:00,
2013-07-01 20:22:00,74.3,60.5,30.00,NE,36,0.0,3.0,62,0.00,,SKC,0.00,VWS V14.01,2013-07-02 01:22:00,
2013-07-01 20:27:00,74.0,60.2,30.00,NE,36,0.0,3.0,62,0.00,,SKC,0.00,VWS V14.01,2013-07-02 01:27:00,
2013-07-01 20:30:00,76.3,60.5,30.00,NE,34,0.0,4.0,58,0.00,,SKC,0.00,VWS V14.01,2013-07-02 01:30:00,
2013-07-01 20:32:00,73.8,60.4,30.00,NE,36,0.0,0.0,63,0.00,,SKC,0.00,VWS V14.01,2013-07-02 01:32:00,
2013-07-01 20:37:00,73.6,59.8,30.00,NE,36,0.0,2.0,62,0.00,,SKC,0.00,VWS V14.01,2013-07-02 01:37:00,
2013-07-01 20:43:00,73.4,60.9,30.00,NE,36,0.0,2.0,65,0.00,,SKC,0.00,VWS V14.01,2013-07-02 01:43:00,
2013-07-01 20:48:00,73.2,60.7,30.00,NE,36,0.0,2.0,65,0.00,,SKC,0.00,VWS V14.01,2013-07-02 01:48:00,
2013-07-01 20:53:00,72.9,60.9,30.00,NE,36,0.0,2.0,66,0.00,,SKC,0.00,VWS V14.01,2013-07-02 01:53:00,
2013-07-01 20:58:00,72.6,60.2,30.00,NE,36,0.0,2.0,65,0.00,,SKC,0.00,VWS V14.01,2013-07-02 01:58:00,
2013-07-01 21:00:00,75.1,60.3,30.00,NE,36,0.0,4.0,60,0.00,,SKC,0.00,VWS V14.01,2013-07-02 02:00:00,
2013-07-01 21:03:00,72.4,60.8,30.00,NE,36,0.0,0.0,67,0.00,,SKC,0.00,VWS V14.01,2013-07-02 02:03:00,
2013-07-01 21:08:00,72.2,60.7,30.00,NE,36,0.0,0.0,67,0.00,,SKC,0.00,VWS V14.01,2013-07-02 02:08:00,
2013-07-01 21:13:00,71.6,60.1,30.00,NE,36,0.0,0.0,67,0.00,,SKC,0.00,VWS V14.01,2013-07-02 02:13:00,
2013-07-01 21:18:00,70.7,59.2,30.00,NE,36,0.0,0.0,67,0.00,,SKC,0.00,VWS V14.01,2013-07-02 02:18:00,
2013-07-01 21:23:00,69.9,59.3,30.00,NE,36,0.0,0.0,69,0.00,,SKC,0.00,VWS V14.01,2013-07-02 02:23:00,
2013-07-01 21:28:00,69.2,58.2,30.01,NE,36,0.0,0.0,68,0.00,,SKC,0.00,VWS V14.01,2013-07-02 02:28:00,
2013-07-01 21:30:00,73.9,60.1,30.00,NE,36,0.0,3.0,62,0.00,,SKC,0.00,VWS V14.01,2013-07-02 02:30:00,
2013-07-01 21:33:00,68.8,57.8,30.00,NE,36,0.0,1.0,68,0.00,,SKC,0.00,VWS V14.01,2013-07-02 02:33:00,
2013-07-01 21:38:00,68.7,57.3,30.01,NE,36,0.0,1.0,67,0.00,,SKC,0.00,VWS V14.01,2013-07-02 02:38:00,
2013-07-01 21:43:00,68.6,57.6,30.01,NE,36,0.0,1.0,68,0.00,,SKC,0.00,VWS V14.01,2013-07-02 02:43:00,
2013-07-01 21:48:00,68.3,57.8,30.01,NE,36,0.0,1.0,69,0.00,,SKC,0.00,VWS V14.01,2013-07-02 02:48:00,
2013-07-01 21:53:00,68.0,57.5,30.01,NE,36,0.0,1.0,69,0.00,,SKC,0.00,VWS V14.01,2013-07-02 02:53:00,
2013-07-01 21:58:00,67.7,58.0,30.01,NE,36,0.0,1.0,71,0.00,,SKC,0.00,VWS V14.01,2013-07-02 02:58:00,
2013-07-01 22:00:00,72.5,60.1,30.00,NE,36,0.0,2.0,65,0.00,,SKC,0.00,VWS V14.01,2013-07-02 03:00:00,
2013-07-01 22:03:00,67.5,57.8,30.01,NE,36,0.0,0.0,71,0.00,,SKC,0.00,VWS V14.01,2013-07-02 03:03:00,
2013-07-01 22:08:00,67.4,58.1,30.01,NE,36,0.0,0.0,72,0.00,,SKC,0.00,VWS V14.01,2013-07-02 03:08:00,
2013-07-01 22:13:00,67.2,57.9,30.01,NE,36,0.0,0.0,72,0.00,,SKC,0.00,VWS V14.01,2013-07-02 03:13:00,
2013-07-01 22:18:00,67.0,58.5,30.01,NE,36,0.0,1.0,74,0.00,,SKC,0.00,VWS V14.01,2013-07-02 03:18:00,
2013-07-01 22:23:00,66.7,58.5,30.01,NE,36,0.0,1.0,75,0.00,,SKC,0.00,VWS V14.01,2013-07-02 03:23:00,
2013-07-01 22:28:00,66.4,58.2,30.01,NE,36,0.0,1.0,75,0.00,,SKC,0.00,VWS V14.01,2013-07-02 03:28:00,
2013-07-01 22:30:00,69.0,58.0,30.01,NE,36,0.0,0.0,68,0.00,,SKC,0.00,VWS V14.01,2013-07-02 03:30:00,
2013-07-01 22:33:00,66.2,58.4,30.01,NE,36,0.0,0.0,76,0.00,,SKC,0.00,VWS V14.01,2013-07-02 03:33:00,
2013-07-01 22:38:00,66.1,58.7,30.01,NE,36,0.0,1.0,77,0.00,,SKC,0.00,VWS V14.01,2013-07-02 03:38:00,
2013-07-01 22:43:00,66.0,59.0,30.01,NE,36,1.0,1.0,78,0.00,,SKC,0.00,VWS V14.01,2013-07-02 03:43:00,
2013-07-01 22:48:00,65.9,59.2,30.01,NE,36,0.0,2.0,79,0.00,,SKC,0.00,VWS V14.01,2013-07-02 03:48:00,
2013-07-01 22:53:00,65.9,59.2,30.01,NE,36,1.0,2.0,79,0.00,,SKC,0.00,VWS V14.01,2013-07-02 03:53:00,
2013-07-01 22:58:00,65.9,59.6,30.01,NE,36,0.0,2.0,80,0.00,,SKC,0.00,VWS V14.01,2013-07-02 03:58:00,
2013-07-01 23:00:00,67.6,57.9,30.01,NE,36,0.0,1.0,71,0.00,,SKC,0.00,VWS V14.01,2013-07-02 04:00:00,
2013-07-01 23:01:00,65.9,59.9,30.01,NE,36,0.0,0.0,81,0.00,,SKC,0.00,VWS V14.01,2013-07-02 04:01:00,
2013-07-01 23:02:00,65.9,59.9,30.01,NE,36,0.0,0.0,81,0.00,,SKC,0.00,VWS V14.01,2013-07-02 04:02:00,
2013-07-01 23:03:00,65.9,59.9,30.01,NE,36,0.0,0.0,81,0.00,,SKC,0.00,VWS V14.01,2013-07-02 04:03:00,
2013-07-01 23:04:00,65.9,59.9,30.01,NE,36,2.0,3.0,81,0.00,,SKC,0.00,VWS V14.01,2013-07-02 04:04:00,
2013-07-01 23:07:00,65.8,59.5,30.01,NE,36,0.0,3.0,80,0.00,,SKC,0.00,VWS V14.01,2013-07-02 04:07:00,
2013-07-01 23:12:00,65.9,59.9,30.01,NE,36,0.0,3.0,81,0.00,,SKC,0.00,VWS V14.01,2013-07-02 04:12:00,
2013-07-01 23:17:00,65.8,59.5,30.01,NE,36,0.0,3.0,80,0.00,,SKC,0.00,VWS V14.01,2013-07-02 04:17:00,
2013-07-01 23:22:00,65.6,59.3,30.01,NE,36,0.0,3.0,80,0.00,,SKC,0.00,VWS V14.01,2013-07-02 04:22:00,
2013-07-01 23:27:00,65.4,59.4,30.01,NE,36,0.0,3.0,81,0.00,,SKC,0.00,VWS V14.01,2013-07-02 04:27:00,
2013-07-01 23:30:00,66.3,58.5,30.01,NE,36,0.0,2.0,76,0.00,,SKC,0.00,VWS V14.01,2013-07-02 04:30:00,
2013-07-01 23:32:00,65.2,59.6,30.01,NE,36,0.0,1.0,82,0.00,,SKC,0.00,VWS V14.01,2013-07-02 04:32:00,
2013-07-01 23:37:00,65.1,59.5,30.01,NE,36,0.0,2.0,82,0.00,,SKC,0.00,VWS V14.01,2013-07-02 04:37:00,
2013-07-01 23:42:00,65.0,59.7,30.01,NE,36,0.0,2.0,83,0.00,,SKC,0.00,VWS V14.01,2013-07-02 04:42:00,
2013-07-01 23:47:00,64.8,59.9,30.01,NE,36,0.0,4.0,84,0.00,,SKC,0.00,VWS V14.01,2013-07-02 04:47:00,
2013-07-01 23:52:00,64.8,59.5,30.01,NE,36,1.0,4.0,83,0.00,,SKC,0.00,VWS V14.01,2013-07-02 04:52:00,
2013-07-01 23:57:00,64.8,59.9,30.01,NE,36,0.0,4.0,84,0.00,,SKC,0.00,VWS V14.01,2013-07-02 04:57:00,